createdAt,value
2019-03-17T00:01:24.247Z,10.50
2019-03-17T00:03:50.393Z,10.59
2019-03-17T00:06:16.238Z,10.37
2019-03-17T00:08:42.047Z,10.37
2019-03-17T00:11:07.947Z,10.37
2019-03-17T00:13:33.763Z,10.42
2019-03-17T00:15:59.596Z,10.40
2019-03-17T00:18:25.545Z,10.49
2019-03-17T00:20:54.495Z,10.50
2019-03-17T00:23:20.362Z,10.34
2019-03-17T00:25:46.221Z,10.37
2019-03-17T00:28:12.041Z,10.35
2019-03-17T00:30:39.607Z,10.33
2019-03-17T00:33:05.422Z,10.24
2019-03-17T00:35:31.291Z,10.21
2019-03-17T00:37:57.138Z,10.13
2019-03-17T00:40:22.979Z,10.21
2019-03-17T00:42:48.914Z,10.24
2019-03-17T00:45:14.954Z,10.30
2019-03-17T00:47:42.731Z,10.18
2019-03-17T00:50:09.753Z,10.15
2019-03-17T00:52:35.790Z,10.19
2019-03-17T00:55:01.828Z,10.15
2019-03-17T00:57:28.149Z,10.20
2019-03-17T00:59:54.089Z,10.11
2019-03-17T01:02:19.996Z,9.93
2019-03-17T01:04:55.643Z,9.93
2019-03-17T01:07:14.993Z,9.94
2019-03-17T01:09:40.810Z,9.95
2019-03-17T01:12:06.806Z,9.80
2019-03-17T01:14:32.646Z,9.70
2019-03-17T01:16:58.582Z,9.71
2019-03-17T01:19:24.603Z,9.72
2019-03-17T01:21:50.458Z,9.87
2019-03-17T01:24:16.291Z,9.78
2019-03-17T01:26:42.279Z,9.76
2019-03-17T01:29:08.140Z,9.79
2019-03-17T01:31:34.109Z,9.76
2019-03-17T01:34:00.013Z,9.70
2019-03-17T01:36:25.975Z,9.70
2019-03-17T01:38:51.896Z,9.73
2019-03-17T01:41:17.937Z,9.69
2019-03-17T01:43:43.888Z,9.72
2019-03-17T01:46:09.826Z,9.69
2019-03-17T01:48:35.680Z,9.75
2019-03-17T01:51:01.564Z,9.68
2019-03-17T01:53:27.455Z,9.72
2019-03-17T01:55:53.410Z,9.65
2019-03-17T01:58:19.405Z,9.69
2019-03-17T02:00:45.349Z,9.64
2019-03-17T02:03:11.317Z,9.78
2019-03-17T02:05:37.216Z,9.55
2019-03-17T02:08:03.066Z,9.45
2019-03-17T02:10:29.086Z,9.54
2019-03-17T02:12:55.026Z,9.50
2019-03-17T02:15:21.160Z,9.48
2019-03-17T02:17:47.044Z,9.51
2019-03-17T02:20:12.975Z,9.52
2019-03-17T02:22:38.919Z,9.58
2019-03-17T02:25:05.410Z,9.49
2019-03-17T02:27:31.234Z,9.69
2019-03-17T02:29:57.101Z,9.57
2019-03-17T02:32:23.047Z,9.57
2019-03-17T02:34:50.780Z,9.57
2019-03-17T02:37:16.713Z,9.60
2019-03-17T02:39:42.720Z,9.57
2019-03-17T02:42:08.675Z,9.59
2019-03-17T02:44:34.508Z,9.54
2019-03-17T02:47:00.353Z,9.46
2019-03-17T02:49:26.255Z,9.49
2019-03-17T02:51:52.196Z,9.42
2019-03-17T02:54:18.034Z,9.38
2019-03-17T02:56:43.929Z,9.41
2019-03-17T02:59:09.773Z,9.30
2019-03-17T03:01:35.736Z,9.30
2019-03-17T03:04:01.740Z,9.31
2019-03-17T03:06:27.694Z,9.23
2019-03-17T03:08:53.627Z,9.19
2019-03-17T03:11:19.532Z,9.18
2019-03-17T03:13:45.354Z,9.49
2019-03-17T03:16:11.306Z,9.29
2019-03-17T03:18:37.441Z,9.33
2019-03-17T03:21:03.381Z,9.39
2019-03-17T03:23:29.215Z,9.30
2019-03-17T03:25:55.064Z,9.22
2019-03-17T03:28:21.055Z,9.26
2019-03-17T03:30:47.013Z,9.22
2019-03-17T03:33:12.933Z,9.21
2019-03-17T03:35:38.991Z,9.25
2019-03-17T03:38:04.905Z,9.23
2019-03-17T03:40:31.132Z,9.26
2019-03-17T03:42:57.879Z,9.22
2019-03-17T03:45:23.890Z,9.19
2019-03-17T03:47:50.106Z,9.16
2019-03-17T03:50:16.259Z,9.07
2019-03-17T03:52:42.117Z,9.03
2019-03-17T03:55:08.451Z,9.03
2019-03-17T03:57:34.565Z,8.94
2019-03-17T04:00:02.128Z,8.87
2019-03-17T04:02:28.178Z,8.84
2019-03-17T04:04:54.072Z,8.95
2019-03-17T04:07:19.896Z,8.98
2019-03-17T04:09:45.945Z,8.98
2019-03-17T04:12:11.903Z,8.97
2019-03-17T04:14:37.779Z,8.91
2019-03-17T04:17:03.606Z,8.91
2019-03-17T04:19:29.549Z,8.90
2019-03-17T04:21:55.413Z,8.80
2019-03-17T04:24:21.250Z,8.77
2019-03-17T04:26:47.085Z,8.79
2019-03-17T04:29:13.084Z,8.76
2019-03-17T04:31:38.897Z,8.66
2019-03-17T04:34:04.820Z,8.60
2019-03-17T04:36:40.056Z,8.55
2019-03-17T04:38:58.543Z,8.53
2019-03-17T04:41:24.475Z,8.55
2019-03-17T04:43:50.354Z,8.59
2019-03-17T04:46:16.958Z,8.60
2019-03-17T04:48:43.129Z,8.53
2019-03-17T04:51:09.301Z,8.60
2019-03-17T04:53:35.113Z,8.57
2019-03-17T04:56:00.956Z,8.59
2019-03-17T04:58:26.882Z,8.54
2019-03-17T05:00:52.863Z,8.48
2019-03-17T05:03:18.841Z,8.46
2019-03-17T05:05:44.735Z,8.43
2019-03-17T05:08:10.566Z,8.40
2019-03-17T05:10:36.621Z,8.39
2019-03-17T05:13:02.673Z,8.36
2019-03-17T05:15:28.521Z,8.44
2019-03-17T05:17:54.607Z,8.32
2019-03-17T05:20:20.412Z,8.31
2019-03-17T05:22:46.393Z,8.25
2019-03-17T05:25:12.361Z,8.18
2019-03-17T05:27:38.593Z,8.15
2019-03-17T05:30:07.670Z,8.10
2019-03-17T05:32:33.507Z,8.09
2019-03-17T05:34:59.341Z,8.10
2019-03-17T05:37:25.247Z,8.17
2019-03-17T05:39:51.176Z,8.13
2019-03-17T05:42:17.145Z,8.17
2019-03-17T05:44:42.962Z,8.30
2019-03-17T05:47:08.807Z,8.31
2019-03-17T05:49:34.716Z,8.31
2019-03-17T05:52:00.564Z,8.33
2019-03-17T05:54:26.380Z,8.33
2019-03-17T05:56:52.341Z,8.39
2019-03-17T05:59:19.631Z,8.36
2019-03-17T06:01:45.698Z,8.44
2019-03-17T06:04:11.551Z,8.48
2019-03-17T06:06:40.979Z,8.45
2019-03-17T06:09:06.996Z,8.66
2019-03-17T06:11:32.851Z,8.56
2019-03-17T06:13:58.813Z,8.55
2019-03-17T06:16:24.692Z,8.56
2019-03-17T06:18:50.649Z,8.55
2019-03-17T06:21:16.490Z,8.55
2019-03-17T06:23:42.374Z,8.64
2019-03-17T06:26:08.233Z,8.66
2019-03-17T06:28:34.290Z,8.75
2019-03-17T06:31:00.243Z,8.71
2019-03-17T06:33:26.077Z,8.89
2019-03-17T06:35:52.008Z,8.92
2019-03-17T06:38:18.128Z,8.97
2019-03-17T06:40:43.945Z,9.02
2019-03-17T06:43:09.880Z,9.13
2019-03-17T06:45:35.882Z,9.19
2019-03-17T06:48:01.720Z,9.22
2019-03-17T06:50:27.560Z,9.35
2019-03-17T06:52:53.848Z,9.36
2019-03-17T06:55:19.807Z,9.46
2019-03-17T06:57:45.640Z,9.46
2019-03-17T07:00:12.749Z,9.62
2019-03-17T07:02:38.593Z,9.65
2019-03-17T07:05:06.037Z,9.77
2019-03-17T07:07:43.377Z,9.78
2019-03-17T07:09:59.838Z,9.82
2019-03-17T07:12:25.642Z,10.04
2019-03-17T07:14:51.721Z,10.25
2019-03-17T07:17:19.352Z,10.41
2019-03-17T07:19:45.374Z,10.42
2019-03-17T07:22:12.013Z,10.42
2019-03-17T07:24:37.958Z,10.61
2019-03-17T07:27:03.844Z,10.50
2019-03-17T07:29:29.696Z,10.75
2019-03-17T07:31:55.540Z,10.75
2019-03-17T07:34:21.581Z,10.97
2019-03-17T07:36:47.509Z,11.08
2019-03-17T07:39:13.335Z,11.00
2019-03-17T07:41:39.222Z,11.20
2019-03-17T07:44:05.255Z,11.27
2019-03-17T07:46:31.111Z,11.22
2019-03-17T07:48:56.973Z,11.24
2019-03-17T07:51:22.802Z,11.44
2019-03-17T07:53:48.693Z,11.27
2019-03-17T07:56:14.545Z,11.27
2019-03-17T07:58:40.481Z,11.44
2019-03-17T08:01:06.346Z,11.38
2019-03-17T08:03:32.292Z,11.38
2019-03-17T08:05:58.259Z,11.66
2019-03-17T08:08:24.190Z,11.62
2019-03-17T08:10:49.966Z,11.56
2019-03-17T08:13:15.808Z,11.78
2019-03-17T08:15:41.754Z,11.74
2019-03-17T08:18:07.585Z,11.85
2019-03-17T08:20:33.437Z,12.20
2019-03-17T08:22:59.339Z,12.06
2019-03-17T08:25:25.199Z,12.24
2019-03-17T08:27:51.035Z,12.48
2019-03-17T08:30:17.046Z,12.48
2019-03-17T08:32:42.888Z,12.75
2019-03-17T08:35:09.205Z,12.93
2019-03-17T08:37:35.109Z,13.15
2019-03-17T08:40:01.171Z,13.19
2019-03-17T08:42:27.023Z,13.44
2019-03-17T08:44:53.020Z,13.27
2019-03-17T08:47:18.969Z,13.54
2019-03-17T08:49:44.796Z,13.27
2019-03-17T08:52:10.766Z,13.57
2019-03-17T08:54:36.604Z,13.49
2019-03-17T08:57:02.622Z,13.82
2019-03-17T08:59:28.479Z,13.90
2019-03-17T09:01:54.313Z,14.04
2019-03-17T09:04:20.270Z,13.84
2019-03-17T09:06:49.406Z,13.75
2019-03-17T09:09:17.354Z,13.66
2019-03-17T09:11:43.724Z,13.58
2019-03-17T09:14:09.614Z,13.86
2019-03-17T09:16:35.623Z,14.09
2019-03-17T09:19:01.576Z,14.10
2019-03-17T09:21:27.392Z,13.91
2019-03-17T09:23:53.379Z,14.21
2019-03-17T09:26:19.318Z,14.30
2019-03-17T09:28:45.170Z,14.56
2019-03-17T09:31:11.016Z,14.52
2019-03-17T09:33:36.862Z,14.43
2019-03-17T09:36:02.843Z,14.36
2019-03-17T09:38:28.806Z,14.43
2019-03-17T09:40:54.651Z,14.41
2019-03-17T09:43:21.520Z,14.75
2019-03-17T09:45:47.315Z,15.13
2019-03-17T09:48:13.191Z,15.15
2019-03-17T09:50:39.641Z,15.25
2019-03-17T09:53:05.572Z,15.22
2019-03-17T09:55:31.407Z,15.35
2019-03-17T09:57:57.271Z,15.09
2019-03-17T10:00:23.136Z,15.40
2019-03-17T10:02:48.999Z,15.26
2019-03-17T10:05:15.043Z,15.60
2019-03-17T10:07:40.999Z,15.84
2019-03-17T10:10:16.285Z,15.60
2019-03-17T10:12:42.203Z,15.89
2019-03-17T10:15:11.873Z,15.71
2019-03-17T10:17:37.817Z,15.49
2019-03-17T10:20:12.310Z,15.94
2019-03-17T10:22:40.681Z,15.78
2019-03-17T10:25:08.642Z,15.80
2019-03-17T10:27:34.438Z,15.81
2019-03-17T10:30:00.731Z,15.44
2019-03-17T10:32:26.568Z,15.66
2019-03-17T10:34:52.457Z,15.87
2019-03-17T10:37:18.455Z,16.29
2019-03-17T10:39:44.317Z,15.67
2019-03-17T10:42:10.147Z,15.66
2019-03-17T10:44:36.053Z,16.18
2019-03-17T10:47:01.888Z,15.63
2019-03-17T10:49:27.706Z,16.01
2019-03-17T10:51:53.581Z,15.63
2019-03-17T10:54:19.512Z,16.52
2019-03-17T10:56:45.404Z,15.67
2019-03-17T10:59:11.257Z,15.63
2019-03-17T11:01:37.087Z,16.67
2019-03-17T11:04:03.331Z,16.15
2019-03-17T11:06:29.259Z,16.68
2019-03-17T11:08:55.143Z,16.75
2019-03-17T11:11:21.025Z,16.26
2019-03-17T11:13:46.853Z,16.54
2019-03-17T11:16:12.706Z,16.08
2019-03-17T11:18:39.608Z,16.76
2019-03-17T11:21:05.451Z,16.66
2019-03-17T11:23:31.290Z,17.17
2019-03-17T11:25:57.173Z,16.13
2019-03-17T11:28:23.116Z,16.35
2019-03-17T11:30:56.727Z,16.12
2019-03-17T11:33:22.571Z,16.07
2019-03-17T11:35:48.489Z,16.05
2019-03-17T11:38:14.336Z,16.57
2019-03-17T11:40:40.170Z,16.54
2019-03-17T11:43:06.962Z,16.88
2019-03-17T11:45:32.893Z,17.15
2019-03-17T11:47:58.741Z,17.39
2019-03-17T11:50:24.811Z,17.04
2019-03-17T11:52:50.858Z,16.66
2019-03-17T11:55:16.940Z,17.40
2019-03-17T11:57:42.905Z,17.39
2019-03-17T12:00:18.860Z,17.26
2019-03-17T12:02:44.838Z,16.54
2019-03-17T12:05:11.098Z,16.67
2019-03-17T12:07:37.264Z,16.67
2019-03-17T12:10:09.617Z,16.17
2019-03-17T12:12:35.448Z,16.25
2019-03-17T12:15:01.614Z,15.54
2019-03-17T12:17:30.978Z,15.79
2019-03-17T12:19:56.994Z,16.26
2019-03-17T12:22:22.870Z,15.93
2019-03-17T12:24:48.725Z,15.94
2019-03-17T12:27:14.573Z,15.51
2019-03-17T12:29:40.530Z,15.85
2019-03-17T12:32:06.521Z,15.28
2019-03-17T12:34:32.460Z,15.28
2019-03-17T12:36:58.305Z,15.07
2019-03-17T12:39:24.374Z,15.31
2019-03-17T12:41:50.214Z,15.23
2019-03-17T12:44:16.054Z,15.04
2019-03-17T12:46:42.027Z,15.12
2019-03-17T12:49:09.627Z,15.08
2019-03-17T12:51:35.552Z,15.10
2019-03-17T12:54:03.493Z,14.95
2019-03-17T12:56:31.645Z,14.76
2019-03-17T12:58:57.816Z,14.58
2019-03-17T13:01:23.794Z,14.65
2019-03-17T13:03:49.741Z,14.88
2019-03-17T13:06:15.856Z,14.98
2019-03-17T13:08:41.929Z,14.71
2019-03-17T13:11:07.881Z,14.77
2019-03-17T13:13:34.001Z,14.99
2019-03-17T13:16:01.210Z,14.93
2019-03-17T13:18:27.120Z,14.37
2019-03-17T13:20:53.196Z,14.54
2019-03-17T13:23:21.646Z,15.13
2019-03-17T13:25:49.788Z,14.69
2019-03-17T13:28:15.758Z,15.32
2019-03-17T13:30:43.616Z,15.25
2019-03-17T13:33:09.704Z,15.37
2019-03-17T13:35:36.886Z,16.02
2019-03-17T13:38:03.071Z,16.30
2019-03-17T13:40:30.211Z,16.15
2019-03-17T13:42:56.328Z,16.31
2019-03-17T13:45:22.348Z,16.20
2019-03-17T13:47:48.424Z,15.97
2019-03-17T13:50:19.606Z,16.60
2019-03-17T13:52:45.690Z,17.26
2019-03-17T13:55:11.610Z,18.96
2019-03-17T13:57:38.153Z,22.42
2019-03-17T14:00:07.906Z,22.62
2019-03-17T14:02:33.766Z,22.22
2019-03-17T14:04:59.730Z,20.34
2019-03-17T14:07:25.715Z,18.77
2019-03-17T14:09:51.577Z,18.92
2019-03-17T14:12:17.442Z,18.56
2019-03-17T14:14:43.419Z,17.08
2019-03-17T14:17:09.252Z,19.35
2019-03-17T14:19:35.074Z,19.58
2019-03-17T14:22:01.051Z,18.94
2019-03-17T14:24:26.936Z,18.27
2019-03-17T14:26:52.771Z,19.56
2019-03-17T14:29:18.619Z,20.39
2019-03-17T14:31:44.491Z,18.57
2019-03-17T14:34:10.426Z,18.73
2019-03-17T14:36:36.468Z,17.62
2019-03-17T14:39:04.825Z,17.78
2019-03-17T14:41:30.921Z,17.78
2019-03-17T14:43:56.737Z,17.53
2019-03-17T14:46:22.679Z,17.23
2019-03-17T14:48:48.534Z,17.70
2019-03-17T14:51:14.357Z,17.53
2019-03-17T14:53:40.262Z,16.84
2019-03-17T14:56:06.244Z,16.22
2019-03-17T14:58:32.082Z,15.88
2019-03-17T15:00:58.003Z,15.94
2019-03-17T15:03:23.846Z,16.25
2019-03-17T15:05:51.626Z,15.63
2019-03-17T15:08:17.503Z,15.10
2019-03-17T15:10:46.830Z,15.35
2019-03-17T15:13:12.677Z,15.20
2019-03-17T15:15:38.532Z,14.96
2019-03-17T15:18:04.357Z,15.21
2019-03-17T15:20:30.208Z,15.50
2019-03-17T15:22:56.168Z,15.20
2019-03-17T15:25:22.037Z,15.15
2019-03-17T15:27:47.961Z,15.15
2019-03-17T15:30:19.811Z,15.10
2019-03-17T15:32:45.748Z,14.95
2019-03-17T15:35:13.419Z,15.25
2019-03-17T15:37:39.634Z,15.38
2019-03-17T15:40:11.000Z,15.21
2019-03-17T15:42:36.899Z,15.30
2019-03-17T15:45:05.727Z,15.19
2019-03-17T15:47:34.554Z,15.03
2019-03-17T15:50:00.638Z,14.88
2019-03-17T15:52:26.492Z,14.67
2019-03-17T15:54:52.322Z,14.78
2019-03-17T15:57:18.153Z,14.82
2019-03-17T15:59:44.061Z,14.77
2019-03-17T16:02:09.961Z,14.84
2019-03-17T16:04:35.806Z,15.06
2019-03-17T16:07:02.114Z,14.90
2019-03-17T16:09:28.722Z,14.71
2019-03-17T16:11:58.449Z,14.93
2019-03-17T16:14:24.286Z,14.91
2019-03-17T16:16:50.281Z,14.58
2019-03-17T16:19:16.206Z,14.57
2019-03-17T16:21:42.092Z,14.65
2019-03-17T16:24:07.997Z,14.61
2019-03-17T16:26:33.829Z,14.61
2019-03-17T16:28:59.767Z,14.53
2019-03-17T16:31:25.597Z,14.57
2019-03-17T16:33:51.544Z,14.42
2019-03-17T16:36:17.372Z,14.42
2019-03-17T16:38:43.218Z,14.34
2019-03-17T16:41:09.092Z,14.45
2019-03-17T16:43:35.133Z,14.35
2019-03-17T16:46:01.223Z,14.36
2019-03-17T16:48:27.056Z,14.33
2019-03-17T16:50:52.894Z,14.32
2019-03-17T16:53:18.839Z,14.38
2019-03-17T16:55:44.693Z,14.42
2019-03-17T16:58:10.622Z,14.26
2019-03-17T17:00:36.710Z,14.30
2019-03-17T17:03:02.796Z,14.29
2019-03-17T17:05:35.046Z,14.23
2019-03-17T17:08:01.256Z,14.22
2019-03-17T17:10:28.229Z,14.19
2019-03-17T17:12:54.322Z,14.23
2019-03-17T17:15:23.333Z,14.16
2019-03-17T17:17:49.642Z,14.15
2019-03-17T17:20:18.120Z,14.14
2019-03-17T17:22:44.196Z,14.12
2019-03-17T17:25:10.729Z,14.10
2019-03-17T17:27:36.585Z,14.18
2019-03-17T17:30:06.083Z,14.28
2019-03-17T17:32:33.456Z,14.24
2019-03-17T17:34:59.306Z,14.31
2019-03-17T17:37:25.199Z,14.06
2019-03-17T17:39:51.036Z,14.08
2019-03-17T17:42:16.874Z,14.18
2019-03-17T17:44:42.823Z,14.26
2019-03-17T17:47:08.719Z,14.28
2019-03-17T17:49:34.656Z,14.33
2019-03-17T17:52:02.592Z,14.25
2019-03-17T17:54:28.355Z,14.11
2019-03-17T17:56:54.648Z,14.03
2019-03-17T17:59:20.468Z,14.14
2019-03-17T18:01:46.313Z,14.29
2019-03-17T18:04:12.269Z,14.11
2019-03-17T18:06:38.290Z,14.20
2019-03-17T18:09:05.730Z,14.13
2019-03-17T18:11:31.637Z,14.14
2019-03-17T18:13:57.521Z,14.10
2019-03-17T18:16:23.465Z,14.16
2019-03-17T18:18:49.358Z,14.20
2019-03-17T18:21:15.200Z,14.08
2019-03-17T18:23:41.061Z,13.85
2019-03-17T18:26:07.134Z,13.80
2019-03-17T18:28:33.110Z,13.77
2019-03-17T18:30:59.155Z,13.80
2019-03-17T18:33:25.152Z,13.76
2019-03-17T18:35:50.998Z,13.74
2019-03-17T18:38:16.896Z,13.72
2019-03-17T18:40:42.785Z,13.72
2019-03-17T18:43:08.748Z,13.76
2019-03-17T18:45:34.695Z,13.72
2019-03-17T18:48:00.773Z,13.78
2019-03-17T18:50:26.818Z,13.72
2019-03-17T18:52:52.758Z,13.69
2019-03-17T18:55:18.849Z,13.68
2019-03-17T18:57:44.905Z,13.66
2019-03-17T19:00:17.869Z,13.64
2019-03-17T19:02:44.037Z,13.65
2019-03-17T19:05:11.974Z,13.69
2019-03-17T19:07:37.936Z,13.67
2019-03-17T19:10:06.664Z,13.65
2019-03-17T19:12:44.622Z,13.66
2019-03-17T19:15:07.723Z,13.72
2019-03-17T19:17:33.683Z,13.76
2019-03-17T19:19:59.824Z,13.66
2019-03-17T19:22:25.642Z,13.66
2019-03-17T19:24:51.620Z,13.66
2019-03-17T19:27:17.574Z,13.56
2019-03-17T19:29:43.421Z,13.55
2019-03-17T19:32:09.391Z,13.59
2019-03-17T19:34:35.314Z,13.59
2019-03-17T19:37:01.183Z,13.48
2019-03-17T19:39:27.198Z,13.45
2019-03-17T19:41:53.150Z,13.41
2019-03-17T19:44:19.013Z,13.40
2019-03-17T19:46:44.856Z,13.43
2019-03-17T19:49:10.940Z,13.43
2019-03-17T19:51:36.893Z,13.41
2019-03-17T19:54:03.060Z,13.41
2019-03-17T19:56:29.917Z,13.39
2019-03-17T19:58:55.745Z,13.38
2019-03-17T20:01:21.578Z,13.36
2019-03-17T20:03:47.447Z,13.40
2019-03-17T20:06:13.287Z,13.49
2019-03-17T20:08:39.233Z,13.55
2019-03-17T20:11:06.642Z,13.57
2019-03-17T20:13:32.493Z,13.56
2019-03-17T20:15:58.365Z,13.53
2019-03-17T20:18:24.197Z,13.49
2019-03-17T20:20:50.440Z,13.52
2019-03-17T20:23:21.314Z,13.59
2019-03-17T20:25:48.012Z,13.64
2019-03-17T20:28:13.798Z,13.54
2019-03-17T20:30:39.764Z,13.54
2019-03-17T20:33:05.596Z,13.57
2019-03-17T20:35:31.543Z,13.50
2019-03-17T20:37:57.540Z,13.49
2019-03-17T20:40:23.616Z,13.43
2019-03-17T20:42:49.561Z,13.50
2019-03-17T20:45:15.657Z,13.40
2019-03-17T20:47:42.015Z,13.40
2019-03-17T20:50:16.159Z,13.25
2019-03-17T20:52:42.236Z,13.28
2019-03-17T20:55:09.542Z,13.24
2019-03-17T20:57:35.770Z,13.19
2019-03-17T21:00:04.565Z,13.15
2019-03-17T21:02:30.619Z,12.94
2019-03-17T21:04:58.054Z,13.01
2019-03-17T21:07:24.141Z,12.95
2019-03-17T21:09:51.418Z,12.88
2019-03-17T21:12:17.920Z,13.03
2019-03-17T21:14:44.035Z,12.86
2019-03-17T21:17:10.094Z,12.77
2019-03-17T21:19:36.215Z,12.75
2019-03-17T21:22:02.273Z,12.74
2019-03-17T21:24:30.255Z,12.69
2019-03-17T21:26:57.337Z,12.71
2019-03-17T21:29:25.222Z,12.74
2019-03-17T21:31:51.162Z,12.65
2019-03-17T21:34:17.091Z,12.58
2019-03-17T21:36:42.928Z,12.60
2019-03-17T21:39:08.872Z,12.49
2019-03-17T21:41:34.867Z,12.53
2019-03-17T21:44:00.821Z,12.57
2019-03-17T21:46:26.659Z,12.59
2019-03-17T21:48:52.549Z,12.47
2019-03-17T21:51:18.360Z,12.41
2019-03-17T21:53:44.183Z,12.44
2019-03-17T21:56:10.064Z,12.37
2019-03-17T21:58:35.896Z,12.40
2019-03-17T22:01:01.744Z,12.32
2019-03-17T22:03:27.634Z,12.37
2019-03-17T22:05:53.570Z,12.28
2019-03-17T22:08:19.409Z,12.19
2019-03-17T22:10:45.300Z,12.25
2019-03-17T22:13:11.118Z,12.24
2019-03-17T22:15:36.947Z,12.18
2019-03-17T22:18:03.130Z,12.22
2019-03-17T22:20:29.059Z,12.11
2019-03-17T22:22:54.900Z,12.15
2019-03-17T22:25:20.839Z,12.25
2019-03-17T22:27:46.690Z,12.20
2019-03-17T22:30:16.356Z,12.14
2019-03-17T22:32:42.317Z,12.04
2019-03-17T22:35:08.903Z,12.08
2019-03-17T22:37:34.997Z,12.12
2019-03-17T22:40:01.094Z,12.06
2019-03-17T22:42:26.988Z,12.04
2019-03-17T22:44:52.863Z,12.07
2019-03-17T22:47:18.826Z,12.08
2019-03-17T22:49:44.742Z,12.11
2019-03-17T22:52:11.079Z,12.01
2019-03-17T22:54:36.933Z,11.98
2019-03-17T22:57:03.696Z,12.03
2019-03-17T22:59:29.621Z,12.03
2019-03-17T23:01:55.436Z,11.99
2019-03-17T23:04:22.245Z,12.01
2019-03-17T23:06:48.359Z,12.06
2019-03-17T23:09:14.359Z,12.20
2019-03-17T23:11:40.210Z,12.23
2019-03-17T23:14:06.297Z,12.12
2019-03-17T23:16:32.195Z,12.10
2019-03-17T23:19:01.792Z,12.14
2019-03-17T23:21:27.658Z,12.08
2019-03-17T23:23:53.490Z,12.03
2019-03-17T23:26:19.373Z,11.97
2019-03-17T23:28:45.296Z,12.05
2019-03-17T23:31:11.233Z,12.05
2019-03-17T23:33:37.176Z,12.05
2019-03-17T23:36:03.148Z,12.06
2019-03-17T23:38:28.988Z,12.03
2019-03-17T23:40:54.865Z,12.08
2019-03-17T23:43:20.679Z,12.09
2019-03-17T23:45:46.537Z,12.15
2019-03-17T23:48:12.526Z,12.15
2019-03-17T23:50:38.378Z,12.15
2019-03-17T23:53:04.204Z,12.13
2019-03-17T23:55:30.252Z,12.13
2019-03-17T23:57:56.223Z,12.12
